Atlanta, Georgia
Traffic Map
Current Weather Conditions
Atlanta, Georgia
Few Clouds
Few Clouds
47°
Feels Like: 44°
Wind Chill: 44° Ceiling: Unl
Heat Index: 47° Visibility: 10mi
Dew Point: 39° Wind: 6mph
Humidity: 74% Direction: 80° (E)
Pressure: 30.02in Gusts: 0mph
Raw Report DataKATL 240452Z 08005KT 10SM FEW035 08/04 A3002 RMK AO2 SLP167 T00830039 401610044
Traffic Incident Summary
Active as of:
Severity:
Category:
InformationThere was an issue retrieving the traffic information for this location. Please try a different location or try again shortly.
Advertisements